Wednesday, September 17, 2014
05:37 UTC
  |  Log In   |  Register Free
Airport Search:

Coleman Municipal Airport
(KCOM)

Coleman Municipal Airport Diagram
No Airport Diagram Available

FAA data valid effective July 24, 2014 until September 18, 2014 (unless otherwise noted).

 
 
 
 
 
 
 
 
 
 
 
 
 
 

Current Aviation Weather for Coleman Municipal Airport (KCOM)

The most recent METAR observation for KCOM was updated at: 0535
METAR Summary (Translated METAR)
KCOM
170455Z AUTO 14009KT 10SM BKN110 27/19 A3006 RMK AO2 T02650187
KBWD
170515Z AUTO 13007KT 10SM BKN031 BKN039 25/20 A3004 RMK AO2
(23 nm SE from KCOM)
KABI
170452Z 00000KT 10SM SCT055 BKN095 BKN120 26/19 A3007 RMK AO2 RAB14E29 SLP155 P0000 T02560189
(37 nm NW from KCOM)
TAF Summary (Translated TAF)
KABI
(37 nm NW from KCOM)
170520Z 1706/1806 VRB04KT P6SM BKN100 BKN250 FM171800 06007KT P6SM SCT060
  Airport Weather Conditions for KCOM

 Current Weather at COM
81° F
Overcast
Southeast winds at 12.7 mph
COM NOAA Radar

Pressure: 30.06 in
Humidity: 59%
Wind: Southeast at 12.7 MPH (11 KT)
Dew Point: 64.8°F
Visibility: 10.00 mi


Airport Weather Forecast for KCOM

Translated METAR and TAF for KCOM
Translated METAR for KCOM (0531 UTC 17 September 2014)
found at http://aviationweather.gov/adds/metars/
 
METAR text: KCOM 170455Z AUTO 14009KT 10SM BKN110 27/19 A3006 RMK AO2 T02650187
Conditions at: KCOM (COLEMAN MUNI , TX, US) observed 0455 UTC 17 September 2014
Temperature: 26.5°C (80°F)
Dewpoint: 18.7°C (66°F) [RH = 62%]
Pressure (altimeter): 30.06 inches Hg (1018.0 mb)
Winds: from the SE (140 degrees) at 10 MPH (9 knots; 4.7 m/s)
Visibility: 10 or more miles (16+ km)
Ceiling: 11000 feet AGL
Clouds: broken clouds at 11000 feet AGL
Weather: automated observation with no human augmentation;
there may or may not be significant weather present at this time
Translated TAF for KCOM

There is no translated TAF available for this airport

Find All Airport Services Find A Hotel Find A Rental Car Find A Golf Course Find A Restaurant $100 Hamburger



FBO's on the Field
FBO Company Facility Photos Services Transportation Aviation Fuel Prices: Prices include tax
Catering Weather Repair Courtesy Rental Type 100LL JetA JetA+ MOGAS 8087
 
Add another FBO Facility Photos Catering Weather Repair Courtesy Rental Type 100LL JetA JetA+ MOGAS 8087
Services Transportation Aviation Fuel Prices: Prices include tax
There are no FBO's currently reporting fuel at COM. List your FBO now


model-print
model-print
model-print
model-print